createdAt,value
2023-02-21T00:00:32.813Z,12.10
2023-02-21T00:02:18.005Z,11.40
2023-02-21T00:03:41.603Z,16.30
2023-02-21T00:05:03.890Z,19.40
2023-02-21T00:06:29.408Z,12.90
2023-02-21T00:07:52.270Z,14.70
2023-02-21T00:09:14.635Z,10.70
2023-02-21T00:10:37.038Z,10.30
2023-02-21T00:12:01.546Z,14.40
2023-02-21T00:13:23.944Z,15.50
2023-02-21T00:14:46.907Z,17.80
2023-02-21T00:16:09.363Z,9.80
2023-02-21T00:17:31.964Z,14.60
2023-02-21T00:18:55.105Z,11.80
2023-02-21T00:20:18.444Z,12.20
2023-02-21T00:23:04.649Z,14.40
2023-02-21T00:24:30.568Z,14.70
2023-02-21T00:25:52.907Z,16.60
2023-02-21T00:27:15.523Z,13.30
2023-02-21T00:28:37.862Z,9.80
2023-02-21T00:30:00.527Z,13.80
2023-02-21T00:31:23.598Z,17.70
2023-02-21T00:32:47.038Z,14.00
2023-02-21T00:34:09.338Z,15.00
2023-02-21T00:35:31.617Z,14.30
2023-02-21T00:36:53.696Z,13.40
2023-02-21T00:38:15.828Z,16.90
2023-02-21T00:39:38.056Z,20.90
2023-02-21T00:41:00.156Z,13.40
2023-02-21T00:42:24.044Z,15.00
2023-02-21T00:43:51.262Z,12.50
2023-02-21T00:45:13.655Z,13.50
2023-02-21T00:46:36.043Z,18.10
2023-02-21T00:47:58.612Z,14.60
2023-02-21T00:49:21.801Z,14.20
2023-02-21T00:50:44.157Z,10.00
2023-02-21T00:52:06.489Z,14.30
2023-02-21T00:53:28.837Z,11.00
2023-02-21T00:54:51.140Z,14.00
2023-02-21T00:56:13.167Z,17.30
2023-02-21T00:57:35.612Z,10.70
2023-02-21T00:58:57.967Z,14.70
2023-02-21T01:00:20.200Z,15.00
2023-02-21T01:01:42.325Z,12.00
2023-02-21T01:03:04.634Z,10.60
2023-02-21T01:04:27.460Z,17.70
2023-02-21T01:05:49.728Z,11.10
2023-02-21T01:07:12.000Z,11.70
2023-02-21T01:08:34.500Z,16.40
2023-02-21T01:09:56.758Z,13.70
2023-02-21T01:11:19.100Z,13.90
2023-02-21T01:12:41.300Z,13.10
2023-02-21T01:14:04.106Z,13.10
2023-02-21T01:15:27.696Z,10.60
2023-02-21T01:16:53.076Z,19.30
2023-02-21T01:18:16.764Z,13.40
2023-02-21T01:19:38.895Z,16.50
2023-02-21T01:21:01.261Z,13.20
2023-02-21T01:22:24.407Z,12.90
2023-02-21T01:23:46.928Z,14.80
2023-02-21T01:25:10.312Z,16.30
2023-02-21T01:26:32.781Z,16.20
2023-02-21T01:27:55.939Z,17.30
2023-02-21T01:29:18.412Z,18.00
2023-02-21T01:30:40.967Z,16.90
2023-02-21T01:32:03.629Z,19.50
2023-02-21T01:33:25.774Z,16.30
2023-02-21T01:34:47.970Z,13.60
2023-02-21T01:36:10.638Z,15.20
2023-02-21T01:37:33.316Z,13.40
2023-02-21T01:38:56.013Z,13.80
2023-02-21T01:40:18.474Z,16.80
2023-02-21T01:41:41.007Z,18.40
2023-02-21T01:43:03.556Z,20.70
2023-02-21T01:44:47.569Z,14.60
2023-02-21T01:46:12.393Z,13.70
2023-02-21T01:47:34.807Z,17.00
2023-02-21T01:48:58.179Z,15.80
2023-02-21T01:50:31.768Z,13.70
2023-02-21T01:51:58.391Z,17.10
2023-02-21T01:53:25.716Z,18.40
2023-02-21T01:54:52.196Z,15.30
2023-02-21T01:56:16.912Z,13.60
2023-02-21T01:57:40.534Z,14.30
2023-02-21T02:00:29.394Z,15.20
2023-02-21T02:02:04.474Z,18.60
2023-02-21T02:03:30.129Z,14.00
2023-02-21T02:04:52.792Z,16.20
2023-02-21T02:07:40.331Z,19.00
2023-02-21T02:09:06.094Z,16.70
2023-02-21T02:10:33.114Z,13.70
2023-02-21T02:12:25.086Z,16.60
2023-02-21T02:13:51.385Z,15.70
2023-02-21T02:15:04.363Z,18.60
2023-02-21T02:16:28.184Z,13.00
2023-02-21T02:17:34.832Z,16.00
2023-02-21T02:19:09.599Z,15.80
2023-02-21T02:20:41.615Z,11.60
2023-02-21T02:22:14.489Z,17.90
2023-02-21T02:23:56.066Z,15.30
2023-02-21T02:25:07.321Z,15.90
2023-02-21T02:26:32.781Z,18.10
2023-02-21T02:28:04.790Z,13.70
2023-02-21T02:29:38.452Z,20.20
2023-02-21T02:31:07.050Z,13.20
2023-02-21T02:32:31.017Z,17.30
2023-02-21T02:33:53.343Z,13.10
2023-02-21T02:35:20.806Z,11.40
2023-02-21T02:36:36.659Z,11.30
2023-02-21T02:37:58.171Z,18.30
2023-02-21T02:39:05.276Z,12.60
2023-02-21T02:40:28.548Z,17.50
2023-02-21T02:41:47.580Z,16.60
2023-02-21T02:43:00.077Z,18.00
2023-02-21T02:44:12.262Z,15.80
2023-02-21T02:45:26.561Z,19.50
2023-02-21T02:46:34.777Z,15.40
2023-02-21T02:47:40.244Z,16.50
2023-02-21T02:48:55.793Z,14.30
2023-02-21T02:50:00.648Z,13.80
2023-02-21T02:51:09.675Z,15.70
2023-02-21T02:52:13.253Z,18.00
2023-02-21T02:53:21.512Z,17.50
2023-02-21T02:54:26.099Z,18.20
2023-02-21T02:55:32.701Z,14.30
2023-02-21T02:56:37.107Z,14.80
2023-02-21T02:58:58.423Z,13.50
2023-02-21T03:00:02.604Z,12.70
2023-02-21T03:01:15.856Z,18.90
2023-02-21T03:02:48.453Z,14.10
2023-02-21T03:03:55.320Z,17.50
2023-02-21T03:05:16.273Z,16.30
2023-02-21T03:06:41.929Z,16.30
2023-02-21T03:08:16.041Z,15.20
2023-02-21T03:09:29.466Z,17.80
2023-02-21T03:10:39.938Z,14.90
2023-02-21T03:11:53.354Z,12.10
2023-02-21T03:13:28.144Z,14.30
2023-02-21T03:14:46.687Z,15.10
2023-02-21T03:15:53.215Z,18.60
2023-02-21T03:17:03.629Z,16.70
2023-02-21T03:18:17.566Z,15.70
2023-02-21T03:19:26.912Z,19.10
2023-02-21T03:20:32.931Z,14.60
2023-02-21T03:21:51.940Z,19.40
2023-02-21T03:22:57.312Z,12.10
2023-02-21T03:24:04.389Z,18.60
2023-02-21T03:25:09.440Z,22.30
2023-02-21T03:26:15.427Z,17.10
2023-02-21T03:27:22.189Z,15.70
2023-02-21T03:28:26.256Z,15.20
2023-02-21T03:29:31.593Z,16.00
2023-02-21T03:30:35.783Z,13.60
2023-02-21T03:31:48.503Z,19.20
2023-02-21T03:32:53.939Z,19.40
2023-02-21T03:33:58.902Z,15.90
2023-02-21T03:35:06.083Z,18.50
2023-02-21T03:36:10.300Z,19.20
2023-02-21T03:37:42.169Z,15.30
2023-02-21T03:38:45.870Z,14.60
2023-02-21T03:39:49.575Z,19.40
2023-02-21T03:40:53.326Z,17.60
2023-02-21T03:41:56.990Z,13.60
2023-02-21T03:43:07.426Z,16.70
2023-02-21T03:44:21.430Z,20.50
2023-02-21T03:45:26.093Z,17.50
2023-02-21T03:46:45.385Z,18.30
2023-02-21T03:47:49.295Z,18.40
2023-02-21T03:48:53.016Z,18.40
2023-02-21T03:50:01.124Z,18.90
2023-02-21T03:51:05.353Z,16.60
2023-02-21T03:52:13.153Z,15.20
2023-02-21T03:53:17.010Z,19.80
2023-02-21T03:55:28.950Z,21.70
2023-02-21T03:56:41.464Z,21.80
2023-02-21T03:58:02.469Z,16.20
2023-02-21T03:59:06.573Z,20.70
2023-02-21T04:00:12.912Z,17.30
2023-02-21T04:01:19.614Z,19.40
2023-02-21T04:02:23.482Z,18.80
2023-02-21T04:03:27.340Z,16.70
2023-02-21T04:04:34.636Z,17.70
2023-02-21T04:05:44.274Z,20.90
2023-02-21T04:06:48.105Z,25.20
2023-02-21T04:07:51.644Z,21.40
2023-02-21T04:08:55.181Z,19.10
2023-02-21T04:10:00.199Z,15.90
2023-02-21T04:11:18.586Z,20.50
2023-02-21T04:12:22.254Z,16.70
2023-02-21T04:13:26.216Z,20.50
2023-02-21T04:14:30.654Z,15.30
2023-02-21T04:15:34.251Z,19.10
2023-02-21T04:16:37.972Z,19.90
2023-02-21T04:17:42.312Z,18.50
2023-02-21T04:18:46.230Z,20.80
2023-02-21T04:19:51.647Z,19.20
2023-02-21T04:20:55.630Z,17.50
2023-02-21T04:21:59.651Z,18.70
2023-02-21T04:23:03.980Z,24.40
2023-02-21T04:24:08.895Z,18.20
2023-02-21T04:25:12.946Z,20.80
2023-02-21T04:26:25.952Z,20.70
2023-02-21T04:27:30.398Z,18.90
2023-02-21T04:28:34.212Z,24.10
2023-02-21T04:29:38.038Z,19.00
2023-02-21T04:30:41.703Z,21.60
2023-02-21T04:31:45.818Z,23.70
2023-02-21T04:32:52.651Z,18.00
2023-02-21T04:34:10.629Z,18.30
2023-02-21T04:35:15.428Z,17.00
2023-02-21T04:36:20.040Z,14.60
2023-02-21T04:37:23.700Z,21.20
2023-02-21T04:38:27.492Z,22.20
2023-02-21T04:39:31.317Z,20.70
2023-02-21T04:40:35.475Z,19.70
2023-02-21T04:41:39.556Z,16.90
2023-02-21T04:42:43.441Z,19.50
2023-02-21T04:43:47.085Z,24.90
2023-02-21T04:44:59.808Z,18.70
2023-02-21T04:46:05.434Z,18.60
2023-02-21T04:47:09.123Z,21.20
2023-02-21T04:48:12.739Z,25.30
2023-02-21T04:49:16.472Z,22.40
2023-02-21T04:50:20.040Z,21.40
2023-02-21T04:51:25.336Z,19.50
2023-02-21T04:52:28.984Z,17.70
2023-02-21T04:53:32.589Z,18.60
2023-02-21T04:54:36.156Z,17.80
2023-02-21T04:55:39.878Z,24.80
2023-02-21T04:56:43.455Z,17.40
2023-02-21T04:57:47.060Z,25.00
2023-02-21T04:58:51.735Z,22.30
2023-02-21T04:59:59.939Z,22.00
2023-02-21T05:01:03.798Z,25.30
2023-02-21T05:02:08.666Z,23.30
2023-02-21T05:03:12.226Z,21.50
2023-02-21T05:04:15.862Z,27.00
2023-02-21T05:05:19.562Z,22.50
2023-02-21T05:06:25.036Z,22.70
2023-02-21T05:07:28.654Z,25.30
2023-02-21T05:08:32.254Z,22.20
2023-02-21T05:09:35.835Z,17.50
2023-02-21T05:10:45.441Z,21.20
2023-02-21T05:11:49.339Z,21.50
2023-02-21T05:12:52.904Z,21.10
2023-02-21T05:13:56.585Z,22.90
2023-02-21T05:15:00.158Z,22.30
2023-02-21T05:16:03.913Z,26.20
2023-02-21T05:17:07.692Z,25.40
2023-02-21T05:18:11.454Z,18.60
2023-02-21T05:19:30.601Z,22.10
2023-02-21T05:20:34.238Z,25.90
2023-02-21T05:21:38.781Z,20.50
2023-02-21T05:23:56.208Z,17.50
2023-02-21T05:24:59.917Z,19.10
2023-02-21T05:26:06.561Z,18.40
2023-02-21T05:27:15.729Z,21.80
2023-02-21T05:28:19.536Z,21.60
2023-02-21T05:29:23.588Z,18.10
2023-02-21T05:30:27.353Z,22.90
2023-02-21T05:31:31.368Z,22.80
2023-02-21T05:32:35.003Z,25.10
2023-02-21T05:33:38.603Z,23.10
2023-02-21T05:34:44.677Z,23.70
2023-02-21T05:35:49.529Z,20.90
2023-02-21T05:36:53.210Z,25.40
2023-02-21T05:37:57.048Z,30.20
2023-02-21T05:39:00.709Z,25.40
2023-02-21T05:40:05.453Z,20.90
2023-02-21T05:41:09.068Z,26.00
2023-02-21T05:42:12.673Z,22.20
2023-02-21T05:43:16.370Z,24.70
2023-02-21T05:44:19.966Z,27.60
2023-02-21T05:45:23.586Z,23.10
2023-02-21T05:46:33.734Z,28.40
2023-02-21T05:47:37.326Z,23.60
2023-02-21T05:48:40.848Z,21.30
2023-02-21T05:49:44.541Z,23.00
2023-02-21T05:50:48.101Z,23.10
2023-02-21T05:51:51.733Z,22.40
2023-02-21T05:52:57.323Z,21.30
2023-02-21T05:54:01.013Z,25.70
2023-02-21T05:55:04.875Z,22.00
2023-02-21T05:56:10.582Z,24.00
2023-02-21T05:57:14.375Z,23.80
2023-02-21T05:58:17.930Z,24.20
2023-02-21T05:59:22.108Z,26.20
2023-02-21T06:00:28.285Z,25.30
2023-02-21T06:01:31.979Z,34.50
2023-02-21T06:02:35.789Z,25.50
2023-02-21T06:03:39.661Z,32.00
2023-02-21T06:04:43.345Z,30.60
2023-02-21T06:05:46.914Z,30.10
2023-02-21T06:06:50.939Z,20.20
2023-02-21T06:07:54.597Z,23.70
2023-02-21T06:08:58.223Z,26.40
2023-02-21T06:10:01.868Z,27.60
2023-02-21T06:11:05.447Z,25.90
2023-02-21T06:12:09.104Z,23.40
2023-02-21T06:13:12.872Z,23.40
2023-02-21T06:14:20.876Z,26.90
2023-02-21T06:15:24.523Z,24.90
2023-02-21T06:16:28.983Z,29.60
2023-02-21T06:17:33.776Z,29.90
2023-02-21T06:18:37.408Z,25.30
2023-02-21T06:19:41.004Z,27.00
2023-02-21T06:20:44.820Z,27.70
2023-02-21T06:21:48.681Z,21.70
2023-02-21T06:22:52.329Z,25.00
2023-02-21T06:23:56.012Z,26.30
2023-02-21T06:24:59.707Z,22.60
2023-02-21T06:26:03.507Z,24.80
2023-02-21T06:27:07.118Z,22.80
2023-02-21T06:28:10.833Z,21.10
2023-02-21T06:29:14.402Z,28.80
2023-02-21T06:30:18.169Z,20.60
2023-02-21T06:31:22.080Z,23.40
2023-02-21T06:32:27.376Z,28.20
2023-02-21T06:33:31.114Z,26.60
2023-02-21T06:34:35.745Z,25.50
2023-02-21T06:35:39.337Z,25.70
2023-02-21T06:36:42.899Z,25.60
2023-02-21T06:37:46.560Z,24.30
2023-02-21T06:38:53.041Z,20.50
2023-02-21T06:39:56.792Z,19.10
2023-02-21T06:41:01.049Z,22.30
2023-02-21T06:42:04.737Z,25.50
2023-02-21T06:43:08.371Z,26.40
2023-02-21T06:44:12.130Z,22.90
2023-02-21T06:45:15.755Z,22.60
2023-02-21T06:46:22.330Z,26.70
2023-02-21T06:47:26.162Z,25.00
2023-02-21T06:48:30.044Z,20.30
2023-02-21T06:49:33.783Z,23.70
2023-02-21T06:50:37.381Z,25.50
2023-02-21T06:51:41.741Z,27.00
2023-02-21T06:52:45.366Z,26.60
2023-02-21T06:53:50.404Z,25.10
2023-02-21T06:54:54.071Z,23.10
2023-02-21T06:55:57.710Z,23.60
2023-02-21T06:57:01.769Z,22.10
2023-02-21T06:58:05.492Z,28.20
2023-02-21T06:59:09.317Z,23.20
2023-02-21T07:00:13.506Z,25.00
2023-02-21T07:01:17.633Z,25.20
2023-02-21T07:02:21.382Z,23.60
2023-02-21T07:03:24.985Z,22.80
2023-02-21T07:04:28.595Z,25.30
2023-02-21T07:05:34.732Z,25.90
2023-02-21T07:06:38.553Z,25.30
2023-02-21T07:07:43.269Z,25.50
2023-02-21T07:08:47.121Z,20.10
2023-02-21T07:09:50.821Z,24.20
2023-02-21T07:10:54.510Z,20.50
2023-02-21T07:11:58.137Z,25.90
2023-02-21T07:13:01.824Z,23.40
2023-02-21T07:14:05.567Z,20.80
2023-02-21T07:15:09.521Z,27.10
2023-02-21T07:16:14.472Z,22.00
2023-02-21T07:17:18.130Z,25.00
2023-02-21T07:18:21.796Z,29.50
2023-02-21T07:19:25.474Z,21.90
2023-02-21T07:20:29.202Z,28.00
2023-02-21T07:21:32.826Z,31.60
2023-02-21T07:22:36.687Z,24.20
2023-02-21T07:23:40.686Z,22.80
2023-02-21T07:24:44.839Z,25.40
2023-02-21T07:25:48.486Z,24.70
2023-02-21T07:26:52.120Z,24.90
2023-02-21T07:27:55.760Z,25.10
2023-02-21T07:28:59.453Z,22.30
2023-02-21T07:30:03.581Z,22.30
2023-02-21T07:31:07.399Z,24.30
2023-02-21T07:32:11.147Z,24.60
2023-02-21T07:33:14.895Z,20.60
2023-02-21T07:34:19.926Z,21.90
2023-02-21T07:35:23.683Z,23.80
2023-02-21T07:36:27.281Z,23.00
2023-02-21T07:37:30.855Z,25.70
2023-02-21T07:38:34.564Z,25.70
2023-02-21T07:39:38.254Z,27.90
2023-02-21T07:40:41.838Z,27.10
2023-02-21T07:41:45.510Z,22.80
2023-02-21T07:42:49.331Z,25.40
2023-02-21T07:43:53.222Z,23.40
2023-02-21T07:44:57.552Z,27.80
2023-02-21T07:46:01.584Z,28.00
2023-02-21T07:47:05.247Z,22.50
2023-02-21T07:48:08.846Z,26.60
2023-02-21T07:49:12.587Z,30.70
2023-02-21T07:50:16.958Z,27.60
2023-02-21T07:51:20.858Z,33.70
2023-02-21T07:52:24.505Z,27.60
2023-02-21T07:53:28.241Z,30.50
2023-02-21T07:54:31.874Z,28.70
2023-02-21T07:55:35.807Z,25.00
2023-02-21T07:56:44.255Z,26.30
2023-02-21T07:57:48.278Z,25.90
2023-02-21T07:58:51.956Z,22.20
2023-02-21T07:59:55.569Z,29.50
2023-02-21T08:00:59.266Z,23.40
2023-02-21T08:02:03.821Z,29.80
2023-02-21T08:03:07.884Z,24.00
2023-02-21T08:04:13.151Z,27.60
2023-02-21T08:05:17.941Z,26.40
2023-02-21T08:06:21.585Z,23.00
2023-02-21T08:07:25.239Z,25.00
2023-02-21T08:08:28.888Z,27.80
2023-02-21T08:09:33.468Z,25.00
2023-02-21T08:10:37.129Z,23.80
2023-02-21T08:11:40.733Z,28.40
2023-02-21T08:12:44.395Z,28.00
2023-02-21T08:13:48.036Z,31.00
2023-02-21T08:14:51.664Z,25.50
2023-02-21T08:15:55.307Z,28.80
2023-02-21T08:16:59.082Z,25.90
2023-02-21T08:18:02.768Z,28.70
2023-02-21T08:19:06.523Z,32.70
2023-02-21T08:20:10.500Z,25.60
2023-02-21T08:21:14.463Z,25.40
2023-02-21T08:22:19.304Z,29.30
2023-02-21T08:23:23.498Z,24.30
2023-02-21T08:24:27.206Z,34.60
2023-02-21T08:25:30.904Z,26.00
2023-02-21T08:26:34.535Z,30.60
2023-02-21T08:27:44.983Z,28.10
2023-02-21T08:28:48.687Z,24.80
2023-02-21T08:29:52.728Z,27.60
2023-02-21T08:30:56.430Z,29.50
2023-02-21T08:32:00.188Z,27.40
2023-02-21T08:33:04.392Z,28.80
2023-02-21T08:34:09.258Z,31.20
2023-02-21T08:35:17.211Z,30.20
2023-02-21T08:36:21.129Z,29.50
2023-02-21T08:37:24.752Z,33.00
2023-02-21T08:38:28.613Z,26.40
2023-02-21T08:39:32.525Z,26.40
2023-02-21T08:40:36.215Z,28.80
2023-02-21T08:41:42.637Z,28.60
2023-02-21T08:42:50.750Z,28.90
2023-02-21T08:43:54.360Z,24.40
2023-02-21T08:44:57.999Z,27.60
2023-02-21T08:46:02.775Z,28.00
2023-02-21T08:47:06.437Z,34.90
2023-02-21T08:48:10.199Z,33.00
2023-02-21T08:49:14.229Z,33.60
2023-02-21T08:50:20.436Z,25.90
2023-02-21T08:51:28.771Z,28.40
2023-02-21T08:52:32.609Z,30.40
2023-02-21T08:53:36.373Z,27.80
2023-02-21T08:54:40.455Z,30.00
2023-02-21T08:55:44.113Z,27.90
2023-02-21T08:56:49.618Z,27.20
2023-02-21T08:57:54.263Z,26.40
2023-02-21T08:58:57.988Z,26.90
2023-02-21T09:00:01.817Z,29.10
2023-02-21T09:01:05.641Z,36.20
2023-02-21T09:02:20.305Z,29.00
2023-02-21T09:03:24.106Z,30.00
2023-02-21T09:04:28.179Z,24.80
2023-02-21T09:05:32.322Z,27.30
2023-02-21T09:06:35.905Z,28.40
2023-02-21T09:07:39.665Z,24.60
2023-02-21T09:08:43.415Z,29.10
2023-02-21T09:09:47.292Z,28.30
2023-02-21T09:10:51.052Z,31.20
2023-02-21T09:11:54.691Z,30.40
2023-02-21T09:12:58.378Z,27.70
2023-02-21T09:14:05.974Z,35.00
2023-02-21T09:15:09.822Z,22.90
2023-02-21T09:16:13.630Z,32.10
2023-02-21T09:17:17.610Z,26.80
2023-02-21T09:18:22.064Z,24.20
2023-02-21T09:19:25.707Z,26.50
2023-02-21T09:20:29.298Z,28.60
2023-02-21T09:21:34.076Z,25.10
2023-02-21T09:22:37.645Z,23.80
2023-02-21T09:23:41.342Z,27.40
2023-02-21T09:24:45.085Z,26.50
2023-02-21T09:25:48.752Z,30.80
2023-02-21T09:26:58.907Z,34.10
2023-02-21T09:28:02.645Z,29.70
2023-02-21T09:29:06.309Z,31.60
2023-02-21T09:30:17.321Z,24.30
2023-02-21T09:31:21.310Z,35.80
2023-02-21T09:32:25.056Z,29.00
2023-02-21T09:33:31.024Z,27.80
2023-02-21T09:34:34.707Z,28.50
2023-02-21T09:35:38.629Z,31.30
2023-02-21T09:36:42.650Z,26.50
2023-02-21T09:37:47.270Z,25.60
2023-02-21T09:38:51.391Z,27.70
2023-02-21T09:39:55.230Z,29.30
2023-02-21T09:41:05.518Z,32.60
2023-02-21T09:42:14.609Z,30.70
2023-02-21T09:43:34.674Z,30.60
2023-02-21T09:44:38.370Z,28.90
2023-02-21T09:45:44.181Z,27.70
2023-02-21T09:46:50.760Z,31.90
2023-02-21T09:47:56.973Z,27.70
2023-02-21T09:49:03.864Z,26.70
2023-02-21T09:50:13.832Z,26.70
2023-02-21T09:51:17.805Z,28.40
2023-02-21T09:52:32.065Z,27.50
2023-02-21T09:53:40.997Z,32.60
2023-02-21T09:54:47.477Z,28.30
2023-02-21T09:55:55.001Z,31.50
2023-02-21T09:57:02.355Z,28.70
2023-02-21T09:58:11.729Z,28.10
2023-02-21T09:59:15.900Z,29.20
2023-02-21T10:00:23.188Z,24.80
2023-02-21T10:02:01.091Z,26.70
2023-02-21T10:03:34.293Z,28.90
2023-02-21T10:05:16.174Z,29.80
2023-02-21T10:06:37.842Z,26.10
2023-02-21T10:08:05.961Z,30.40
2023-02-21T10:09:21.571Z,32.20
2023-02-21T10:10:43.414Z,31.80
2023-02-21T10:12:16.196Z,25.40
2023-02-21T10:13:40.340Z,32.10
2023-02-21T10:15:05.278Z,30.50
2023-02-21T10:16:22.074Z,30.10
2023-02-21T10:17:28.807Z,32.00
2023-02-21T10:18:42.467Z,32.00
2023-02-21T10:19:52.338Z,26.70
2023-02-21T10:20:59.450Z,25.70
2023-02-21T10:22:20.507Z,30.90
2023-02-21T10:23:40.916Z,29.20
2023-02-21T10:24:44.673Z,31.50
2023-02-21T10:25:49.640Z,34.40
2023-02-21T10:27:02.559Z,31.90
2023-02-21T10:28:08.460Z,25.10
2023-02-21T10:29:24.812Z,25.90
2023-02-21T10:30:38.145Z,33.40
2023-02-21T10:31:43.476Z,30.40
2023-02-21T10:32:47.226Z,31.40
2023-02-21T10:33:51.080Z,27.50
2023-02-21T10:34:55.122Z,29.30
2023-02-21T10:35:58.727Z,30.70
2023-02-21T10:37:25.143Z,30.70
2023-02-21T10:38:29.120Z,24.80
2023-02-21T10:39:41.078Z,24.40
2023-02-21T10:40:58.479Z,26.50
2023-02-21T10:42:02.096Z,27.40
2023-02-21T10:43:17.289Z,24.90
2023-02-21T10:44:27.032Z,24.70
2023-02-21T10:45:36.544Z,27.10
2023-02-21T10:46:45.217Z,28.50
2023-02-21T10:48:04.975Z,29.30
2023-02-21T10:49:45.583Z,28.10
2023-02-21T10:50:52.708Z,27.60
2023-02-21T10:52:17.700Z,26.70
2023-02-21T10:53:30.345Z,27.90
2023-02-21T10:54:35.373Z,23.90
2023-02-21T10:55:39.098Z,24.50
2023-02-21T10:56:43.084Z,25.60
2023-02-21T10:57:52.192Z,29.20
2023-02-21T10:59:05.737Z,26.50
2023-02-21T11:00:10.448Z,24.70
2023-02-21T11:01:25.340Z,27.60
2023-02-21T11:02:35.281Z,31.30
2023-02-21T11:03:47.294Z,25.70
2023-02-21T11:04:53.938Z,23.80
2023-02-21T11:05:58.541Z,25.10
2023-02-21T11:08:12.134Z,24.80
2023-02-21T11:09:27.985Z,24.20
2023-02-21T11:10:35.005Z,26.30
2023-02-21T11:11:41.574Z,21.00
2023-02-21T11:12:45.247Z,22.50
2023-02-21T11:13:48.813Z,27.10
2023-02-21T11:14:52.598Z,27.70
2023-02-21T11:16:24.610Z,27.80
2023-02-21T11:17:29.362Z,34.80
2023-02-21T11:19:53.854Z,24.10
2023-02-21T11:21:12.078Z,22.00
2023-02-21T11:22:22.230Z,28.60
2023-02-21T11:23:31.346Z,22.80
2023-02-21T11:24:47.537Z,23.20
2023-02-21T11:26:15.155Z,21.70
2023-02-21T11:27:19.436Z,30.40
2023-02-21T11:28:23.651Z,24.90
2023-02-21T11:29:27.421Z,28.80
2023-02-21T11:30:43.605Z,23.00
2023-02-21T11:31:47.771Z,21.30
2023-02-21T11:32:57.001Z,24.00
2023-02-21T11:34:06.589Z,22.80
2023-02-21T11:35:19.212Z,25.10
2023-02-21T11:36:30.770Z,26.30
2023-02-21T11:37:54.152Z,22.60
2023-02-21T11:39:19.096Z,27.00
2023-02-21T11:40:47.592Z,31.00
2023-02-21T11:41:53.234Z,26.40
2023-02-21T11:43:30.831Z,24.90
2023-02-21T11:44:37.557Z,27.30
2023-02-21T11:45:50.196Z,27.70
2023-02-21T11:47:28.624Z,25.10
2023-02-21T11:48:42.468Z,26.70
2023-02-21T11:50:07.436Z,24.80
2023-02-21T11:51:26.079Z,27.30
2023-02-21T11:52:36.479Z,23.90
2023-02-21T11:53:43.297Z,25.40
2023-02-21T11:54:46.873Z,25.00
2023-02-21T11:56:13.843Z,27.30
2023-02-21T11:57:32.398Z,26.10
2023-02-21T11:58:52.378Z,24.70
2023-02-21T12:00:26.246Z,27.70
2023-02-21T12:01:47.185Z,22.70
2023-02-21T12:03:12.606Z,24.30
2023-02-21T12:04:36.122Z,25.90
2023-02-21T12:05:45.029Z,22.80
2023-02-21T12:07:07.616Z,30.00
2023-02-21T12:08:29.536Z,29.50
2023-02-21T12:09:38.751Z,25.70
2023-02-21T12:11:08.289Z,27.40
2023-02-21T12:12:49.745Z,22.10
2023-02-21T12:14:02.397Z,28.20
2023-02-21T12:15:15.260Z,27.40
2023-02-21T12:16:24.670Z,23.90
2023-02-21T12:17:54.801Z,24.60
2023-02-21T12:19:13.515Z,30.20
2023-02-21T12:20:26.134Z,23.00
2023-02-21T12:21:38.481Z,26.60
2023-02-21T12:22:51.140Z,21.30
2023-02-21T12:24:21.708Z,17.30
2023-02-21T12:25:53.984Z,23.90
2023-02-21T12:27:11.795Z,16.90
2023-02-21T12:28:39.791Z,18.30
2023-02-21T12:30:05.329Z,29.40
2023-02-21T12:31:23.836Z,15.80
2023-02-21T12:32:48.141Z,20.80
2023-02-21T12:34:17.147Z,20.50
2023-02-21T12:35:39.411Z,24.10
2023-02-21T12:37:18.499Z,20.60
2023-02-21T12:38:30.957Z,22.10
2023-02-21T12:39:43.559Z,21.10
2023-02-21T12:41:14.836Z,23.90
2023-02-21T12:43:01.532Z,19.00
2023-02-21T12:44:17.179Z,19.00
2023-02-21T12:45:39.529Z,20.10
2023-02-21T12:46:51.495Z,16.30
2023-02-21T12:48:13.034Z,19.10
2023-02-21T12:49:53.205Z,15.10
2023-02-21T12:51:04.629Z,15.60
2023-02-21T12:52:23.795Z,16.50
2023-02-21T12:53:51.953Z,15.70
2023-02-21T12:55:18.375Z,18.10
2023-02-21T12:56:35.134Z,14.40
2023-02-21T12:57:59.334Z,17.30
2023-02-21T12:59:05.693Z,16.60
2023-02-21T13:00:22.437Z,19.50
2023-02-21T13:01:26.128Z,23.90
2023-02-21T13:02:55.817Z,20.40
2023-02-21T13:04:23.932Z,22.70
2023-02-21T13:05:44.564Z,23.60
2023-02-21T13:07:11.608Z,18.40
2023-02-21T13:08:27.910Z,21.80
2023-02-21T13:09:37.870Z,20.10
2023-02-21T13:11:05.605Z,19.80
2023-02-21T13:12:14.484Z,22.40
2023-02-21T13:13:32.084Z,19.30
2023-02-21T13:14:55.297Z,23.60
2023-02-21T13:16:04.546Z,19.80
2023-02-21T13:17:15.634Z,22.10
2023-02-21T13:18:27.743Z,20.60
2023-02-21T13:19:39.810Z,23.30
2023-02-21T13:20:54.922Z,18.50
2023-02-21T13:22:42.111Z,17.60
2023-02-21T13:24:28.891Z,17.90
2023-02-21T13:25:52.937Z,17.20
2023-02-21T13:27:05.694Z,14.80
2023-02-21T13:28:36.444Z,19.90
2023-02-21T13:29:42.300Z,16.40
2023-02-21T13:30:50.212Z,19.10
2023-02-21T13:32:11.051Z,20.30
2023-02-21T13:33:38.723Z,14.90
2023-02-21T13:34:48.388Z,18.50
2023-02-21T13:35:52.140Z,20.90
2023-02-21T13:37:02.597Z,19.20
2023-02-21T13:38:08.574Z,17.70
2023-02-21T13:39:17.183Z,18.20
2023-02-21T13:40:39.472Z,18.70
2023-02-21T13:41:50.091Z,19.30
2023-02-21T13:43:12.335Z,15.30
2023-02-21T13:44:24.161Z,18.20
2023-02-21T13:45:32.010Z,20.30
2023-02-21T13:46:35.563Z,27.00
2023-02-21T13:47:57.593Z,22.80
2023-02-21T13:49:38.566Z,22.60
2023-02-21T13:50:50.695Z,19.30
2023-02-21T13:52:19.291Z,18.60
2023-02-21T13:53:34.241Z,20.00
2023-02-21T13:55:16.686Z,25.20
2023-02-21T13:56:20.613Z,25.50
2023-02-21T13:57:34.801Z,20.20
2023-02-21T13:58:45.018Z,20.60
2023-02-21T13:59:48.779Z,13.70
2023-02-21T14:00:53.676Z,17.10
2023-02-21T14:02:17.335Z,16.00
2023-02-21T14:03:20.932Z,16.50
2023-02-21T14:04:57.604Z,15.00
2023-02-21T14:06:01.152Z,17.90
2023-02-21T14:07:04.827Z,18.50
2023-02-21T14:08:12.320Z,18.10
2023-02-21T14:09:18.061Z,17.40
2023-02-21T14:10:34.101Z,15.50
2023-02-21T14:11:44.347Z,15.70
2023-02-21T14:12:56.256Z,13.20
2023-02-21T14:14:04.994Z,15.90
2023-02-21T14:15:09.116Z,13.20
2023-02-21T14:16:12.765Z,15.50
2023-02-21T14:17:28.450Z,18.80
2023-02-21T14:18:49.206Z,21.70
2023-02-21T14:19:54.764Z,17.00
2023-02-21T14:21:01.994Z,16.60
2023-02-21T14:22:20.934Z,12.60
2023-02-21T14:23:40.036Z,16.10
2023-02-21T14:24:48.408Z,15.30
2023-02-21T14:26:00.281Z,15.40
2023-02-21T14:27:27.842Z,17.70
2023-02-21T14:29:06.742Z,17.60
2023-02-21T14:30:10.323Z,16.00
2023-02-21T14:31:14.285Z,14.80
2023-02-21T14:33:30.440Z,13.30
2023-02-21T14:34:49.686Z,14.00
2023-02-21T14:36:08.995Z,16.60
2023-02-21T14:37:21.742Z,13.10
2023-02-21T14:38:29.213Z,15.20
2023-02-21T14:39:40.470Z,14.70
2023-02-21T14:41:08.854Z,13.50
2023-02-21T14:42:27.118Z,21.30
2023-02-21T14:44:20.715Z,11.40
2023-02-21T14:45:53.275Z,13.00
2023-02-21T14:47:17.625Z,11.80
2023-02-21T14:48:42.004Z,18.10
2023-02-21T14:50:04.502Z,17.40
2023-02-21T14:51:18.010Z,15.20
2023-02-21T14:52:33.637Z,19.50
2023-02-21T14:53:42.987Z,22.00
2023-02-21T14:55:24.441Z,13.30
2023-02-21T14:56:47.045Z,18.00
2023-02-21T14:58:22.298Z,13.20
2023-02-21T14:59:56.548Z,13.90
2023-02-21T15:01:05.424Z,13.70
2023-02-21T15:02:28.091Z,17.30
2023-02-21T15:04:07.860Z,12.10
2023-02-21T15:05:19.394Z,15.40
2023-02-21T15:06:24.274Z,16.10
2023-02-21T15:07:48.902Z,18.20
2023-02-21T15:08:53.012Z,15.60
2023-02-21T15:10:11.937Z,19.20
2023-02-21T15:11:28.438Z,18.30
2023-02-21T15:12:36.775Z,15.20
2023-02-21T15:13:40.596Z,15.50
2023-02-21T15:14:52.028Z,18.00
2023-02-21T15:16:15.500Z,15.20
2023-02-21T15:17:24.676Z,19.10
2023-02-21T15:18:35.410Z,15.40
2023-02-21T15:19:39.655Z,17.00
2023-02-21T15:20:43.444Z,18.80
2023-02-21T15:21:47.134Z,15.10
2023-02-21T15:23:02.571Z,16.60
2023-02-21T15:24:15.888Z,18.50
2023-02-21T15:25:21.035Z,18.00
2023-02-21T15:26:29.867Z,20.60
2023-02-21T15:27:39.153Z,18.30
2023-02-21T15:28:42.856Z,19.70
2023-02-21T15:30:07.159Z,21.00
2023-02-21T15:31:12.346Z,17.10
2023-02-21T15:32:16.071Z,19.90
2023-02-21T15:33:21.194Z,22.40
2023-02-21T15:34:43.061Z,18.20
2023-02-21T15:35:49.881Z,18.50
2023-02-21T15:37:00.113Z,15.80